Time;durP1;ratioP1;P1;durP2;ratioP2;P2;SDS_P1;SDS_P2;PMS_P1;PMS_P2;Temp;Humidity;BMP_temperature;BMP_pressure;BME280_temperature;BME280_humidity;BME280_pressure;Samples;Min_cycle;Max_cycle;Signal;HPM_P1;HPM_P2
2022/03/18 00:03:16;;;;;;;6.75;1.00;;;6.40;99.90;;;;;;10407079;28;20072;-61
2022/03/18 00:08:18;;;;;;;3.65;1.02;;;6.30;99.90;;;;;;10404995;28;20041;-61
2022/03/18 00:13:20;;;;;;;3.38;1.00;;;6.30;99.90;;;;;;10408020;28;20053;-61
2022/03/18 00:18:21;;;;;;;4.13;0.80;;;6.30;99.90;;;;;;10401185;28;20037;-61
2022/03/18 00:23:23;;;;;;;10.75;1.00;;;6.30;99.90;;;;;;10404768;28;20049;-62
2022/03/18 00:28:24;;;;;;;3.85;0.82;;;6.20;99.90;;;;;;10402879;28;20143;-62
2022/03/18 00:33:27;;;;;;;7.97;1.00;;;6.20;99.90;;;;;;10398191;28;20044;-61
2022/03/18 00:38:29;;;;;;;8.00;1.05;;;6.20;99.90;;;;;;10401827;28;20569;-61
2022/03/18 00:43:31;;;;;;;4.85;0.70;;;6.20;99.90;;;;;;10402457;28;20098;-62
2022/03/18 00:53:53;;;;;;;9.43;1.05;;;6.10;99.90;;;;;;10401510;28;20107;-61
2022/03/18 00:58:55;;;;;;;8.05;1.30;;;6.10;99.90;;;;;;10412692;28;20053;-61
2022/03/18 01:03:57;;;;;;;4.57;0.82;;;6.00;99.90;;;;;;10396749;28;20080;-62
2022/03/18 01:08:59;;;;;;;9.65;1.10;;;6.00;99.90;;;;;;10408464;28;20127;-62
2022/03/18 01:14:00;;;;;;;5.38;0.93;;;6.00;99.90;;;;;;10411042;28;20068;-61
2022/03/18 01:19:02;;;;;;;9.45;1.80;;;6.00;99.90;;;;;;10405279;28;20103;-61
2022/03/18 01:24:05;;;;;;;3.30;1.80;;;5.90;99.90;;;;;;10407850;28;20076;-62
2022/03/18 01:29:06;;;;;;;9.20;1.75;;;5.90;99.90;;;;;;10416786;28;20397;-61
2022/03/18 01:34:08;;;;;;;7.22;1.02;;;5.90;99.90;;;;;;10405782;28;20148;-61
2022/03/18 01:39:12;;;;;;;5.20;0.95;;;5.90;99.90;;;;;;10413466;28;20049;-62
2022/03/18 01:44:14;;;;;;;8.13;1.63;;;5.90;99.90;;;;;;10408895;28;20077;-62
2022/03/18 01:49:16;;;;;;;8.80;1.27;;;5.80;99.90;;;;;;10407282;28;20138;-61
2022/03/18 01:59:38;;;;;;;7.07;1.10;;;5.80;99.90;;;;;;10405862;28;20073;-61
2022/03/18 02:04:46;;;;;;;5.82;1.25;;;5.80;99.90;;;;;;10394325;28;20146;-61
2022/03/18 02:09:48;;;;;;;4.93;1.00;;;5.80;99.90;;;;;;10406110;28;20076;-61
2022/03/18 02:14:49;;;;;;;6.45;1.65;;;5.80;99.90;;;;;;10404058;28;20044;-61
2022/03/18 02:19:51;;;;;;;5.97;1.67;;;5.80;99.90;;;;;;10395261;28;20149;-60
2022/03/18 02:24:55;;;;;;;10.63;1.67;;;5.80;99.90;;;;;;10402758;28;20073;-60
2022/03/18 02:29:56;;;;;;;6.55;1.75;;;5.80;99.90;;;;;;10406034;28;20045;-61
2022/03/18 02:34:58;;;;;;;7.38;1.60;;;5.80;99.90;;;;;;10407077;28;20049;-61
2022/03/18 02:40:02;;;;;;;7.55;1.17;;;5.80;99.90;;;;;;10409790;28;20061;-61
2022/03/18 02:45:04;;;;;;;5.85;1.45;;;5.70;99.90;;;;;;10406767;28;20045;-60
2022/03/18 02:50:06;;;;;;;8.32;1.27;;;5.70;99.90;;;;;;10407344;28;20514;-61
2022/03/18 02:55:09;;;;;;;10.40;1.45;;;5.70;99.90;;;;;;10408445;28;20073;-61
2022/03/18 03:00:16;;;;;;;7.07;1.50;;;5.70;99.90;;;;;;10393125;28;20041;-61
2022/03/18 03:10:38;;;;;;;6.78;1.45;;;5.70;99.90;;;;;;10406461;28;20098;-62
2022/03/18 03:15:43;;;;;;;4.55;1.63;;;5.60;99.90;;;;;;10405748;28;20053;-63
2022/03/18 03:20:45;;;;;;;8.73;1.75;;;5.60;99.90;;;;;;10407113;28;20053;-63
2022/03/18 03:25:48;;;;;;;6.72;1.75;;;5.50;99.90;;;;;;10406546;28;20048;-62
2022/03/18 03:30:50;;;;;;;11.70;1.95;;;5.50;99.90;;;;;;10412141;28;20557;-61
2022/03/18 03:35:52;;;;;;;7.20;1.45;;;5.50;99.90;;;;;;10397953;28;20046;-61
2022/03/18 03:40:54;;;;;;;5.20;1.33;;;5.50;99.90;;;;;;10398785;28;20041;-61
2022/03/18 03:45:55;;;;;;;4.93;1.55;;;5.50;99.90;;;;;;10404497;28;20076;-61
2022/03/18 03:50:57;;;;;;;8.63;2.20;;;5.50;99.90;;;;;;10402192;28;20179;-62
2022/03/18 03:55:58;;;;;;;8.65;1.40;;;5.50;99.90;;;;;;10404719;28;20045;-61
2022/03/18 04:01:00;;;;;;;10.18;1.55;;;5.50;99.90;;;;;;10405126;28;20943;-60
2022/03/18 04:06:02;;;;;;;4.90;1.30;;;5.50;99.90;;;;;;10402720;28;20052;-60
2022/03/18 04:11:04;;;;;;;11.65;1.20;;;5.50;99.90;;;;;;10406824;28;20045;-60
2022/03/18 04:16:05;;;;;;;7.88;1.70;;;5.50;99.90;;;;;;10404517;28;20132;-60
2022/03/18 04:21:07;;;;;;;10.27;1.52;;;5.50;99.90;;;;;;10404867;28;20040;-61
2022/03/18 04:26:09;;;;;;;7.10;1.90;;;5.50;99.90;;;;;;10406832;28;20091;-60
2022/03/18 04:31:11;;;;;;;5.43;1.45;;;5.40;99.90;;;;;;10401173;28;20048;-61
2022/03/18 04:36:12;;;;;;;10.60;1.48;;;5.40;99.90;;;;;;10402902;28;20038;-61
2022/03/18 04:41:14;;;;;;;9.70;2.10;;;5.40;99.90;;;;;;10401574;28;20053;-61
2022/03/18 04:46:16;;;;;;;8.35;2.25;;;5.40;99.90;;;;;;10405762;28;20122;-60
2022/03/18 04:51:17;;;;;;;9.07;1.95;;;5.40;99.90;;;;;;10407585;28;20137;-60
2022/03/18 05:01:47;;;;;;;7.93;2.15;;;5.40;99.90;;;;;;10408318;28;20509;-61
2022/03/18 05:06:49;;;;;;;5.85;2.08;;;5.40;99.90;;;;;;10409056;28;20041;-61
2022/03/18 05:11:51;;;;;;;12.35;2.60;;;5.30;99.90;;;;;;10404039;28;20045;-60
2022/03/18 05:16:53;;;;;;;9.95;3.38;;;5.30;99.90;;;;;;10397199;28;20057;-61
2022/03/18 05:21:55;;;;;;;12.30;2.40;;;5.30;99.90;;;;;;10408508;28;20057;-61
2022/03/18 05:26:58;;;;;;;11.57;2.35;;;5.20;99.90;;;;;;10406345;28;20048;-61
2022/03/18 05:32:00;;;;;;;6.10;2.33;;;5.10;99.90;;;;;;10409647;28;20103;-63
2022/03/18 05:37:05;;;;;;;11.02;3.30;;;5.10;99.90;;;;;;10412256;28;20082;-63
2022/03/18 05:42:07;;;;;;;10.05;2.45;;;5.10;99.90;;;;;;10407753;28;20069;-63
2022/03/18 05:47:09;;;;;;;12.50;2.33;;;5.10;99.90;;;;;;10409770;28;20553;-62
2022/03/18 05:52:11;;;;;;;7.78;2.53;;;5.10;99.90;;;;;;10406880;28;20106;-62
2022/03/18 05:57:12;;;;;;;6.60;2.38;;;5.00;99.90;;;;;;10413045;28;20079;-63
2022/03/18 06:02:25;;;;;;;7.68;2.85;;;5.10;99.90;;;;;;10387358;28;20098;-63
2022/03/18 06:07:28;;;;;;;10.15;2.10;;;5.10;99.90;;;;;;10405199;28;20060;-63
2022/03/18 06:12:30;;;;;;;10.63;2.08;;;5.10;99.90;;;;;;10395319;28;20072;-63
2022/03/18 06:17:32;;;;;;;9.05;1.80;;;5.20;99.90;;;;;;10405533;28;20045;-63
2022/03/18 06:22:33;;;;;;;5.85;1.63;;;5.20;99.90;;;;;;10405636;28;20154;-62
2022/03/18 06:27:35;;;;;;;11.43;2.00;;;5.20;99.90;;;;;;10405209;28;20053;-62
2022/03/18 06:32:37;;;;;;;7.05;2.00;;;5.30;99.90;;;;;;10407149;28;20074;-62
2022/03/18 06:37:38;;;;;;;5.00;1.60;;;5.30;99.90;;;;;;10406852;28;20535;-63
2022/03/18 06:42:40;;;;;;;9.90;1.52;;;5.30;99.90;;;;;;10405663;28;20079;-64
2022/03/18 06:47:42;;;;;;;4.90;1.30;;;5.30;99.90;;;;;;10406181;28;20050;-64
2022/03/18 06:52:43;;;;;;;4.82;2.13;;;5.30;99.90;;;;;;10407673;28;20106;-63
2022/03/18 06:57:45;;;;;;;10.70;1.85;;;5.40;99.90;;;;;;10407017;28;20045;-62
2022/03/18 07:02:47;;;;;;;9.82;1.70;;;5.50;99.90;;;;;;10401015;28;20049;-63
2022/03/18 07:07:49;;;;;;;9.27;2.08;;;5.50;99.90;;;;;;10393171;28;20052;-64
2022/03/18 07:12:50;;;;;;;12.90;2.92;;;5.60;99.90;;;;;;10411916;28;20037;-63
2022/03/18 07:17:55;;;;;;;7.20;2.35;;;5.60;99.90;;;;;;10408786;28;20476;-63
2022/03/18 07:23:15;;;;;;;7.57;1.85;;;5.60;99.90;;;;;;10407461;28;20111;-61
2022/03/18 07:28:17;;;;;;;9.00;2.40;;;5.70;99.90;;;;;;10405050;28;20040;-61
2022/03/18 07:33:19;;;;;;;6.00;1.85;;;5.70;99.90;;;;;;10404514;28;20045;-62
2022/03/18 07:38:21;;;;;;;9.57;2.10;;;5.80;99.90;;;;;;10399825;28;20050;-63
2022/03/18 07:43:27;;;;;;;12.70;2.00;;;5.80;99.90;;;;;;10405364;28;20041;-63
2022/03/18 07:48:28;;;;;;;8.60;2.45;;;5.90;99.20;;;;;;10405905;28;20503;-62
2022/03/18 07:53:30;;;;;;;10.13;2.42;;;5.90;99.60;;;;;;10407242;28;20056;-62
2022/03/18 07:58:32;;;;;;;8.05;2.17;;;6.00;98.60;;;;;;10410493;28;20061;-62
2022/03/18 08:03:34;;;;;;;8.88;1.95;;;6.00;98.80;;;;;;10395729;28;20072;-62
2022/03/18 08:08:35;;;;;;;6.03;1.63;;;6.10;97.50;;;;;;10403029;28;20054;-62
2022/03/18 08:13:38;;;;;;;4.70;1.77;;;6.20;98.10;;;;;;10397359;28;20045;-63
2022/03/18 08:18:39;;;;;;;6.30;2.03;;;6.30;98.10;;;;;;10406575;28;20037;-62
2022/03/18 08:23:41;;;;;;;11.63;2.67;;;6.30;97.40;;;;;;10407443;28;20072;-61
2022/03/18 08:28:43;;;;;;;7.82;2.22;;;6.40;96.40;;;;;;10405360;28;20040;-62
2022/03/18 08:33:45;;;;;;;8.98;2.53;;;6.50;96.30;;;;;;10386195;28;20098;-62
2022/03/18 08:38:50;;;;;;;8.25;1.92;;;6.50;95.60;;;;;;10397689;28;20083;-63
2022/03/18 08:43:52;;;;;;;5.80;2.00;;;6.50;95.60;;;;;;10402828;28;20109;-62
2022/03/18 08:48:53;;;;;;;6.40;2.08;;;6.40;95.00;;;;;;10405856;28;20041;-62
2022/03/18 08:53:55;;;;;;;11.05;2.28;;;6.40;95.30;;;;;;10406309;28;20069;-64
2022/03/18 08:58:58;;;;;;;12.73;3.22;;;6.40;96.10;;;;;;10397929;28;20049;-63
2022/03/18 09:03:59;;;;;;;5.47;2.40;;;6.40;95.20;;;;;;10394213;28;20687;-64
2022/03/18 09:09:03;;;;;;;8.55;2.40;;;6.40;95.50;;;;;;10404229;28;20539;-62
2022/03/18 09:14:05;;;;;;;12.50;2.47;;;6.30;95.00;;;;;;10407228;28;20046;-64
2022/03/18 09:19:07;;;;;;;7.65;1.80;;;6.40;95.50;;;;;;10402088;28;20051;-64
2022/03/18 09:24:09;;;;;;;8.48;2.58;;;6.50;93.90;;;;;;10400106;28;20115;-63
2022/03/18 09:29:12;;;;;;;9.23;2.20;;;6.60;92.50;;;;;;10407355;28;20072;-63
2022/03/18 09:34:13;;;;;;;8.55;1.70;;;6.80;92.00;;;;;;10403066;28;20053;-62
2022/03/18 09:39:15;;;;;;;6.22;1.42;;;7.10;90.70;;;;;;10411638;28;20050;-62
2022/03/18 09:44:17;;;;;;;9.75;1.35;;;7.40;86.40;;;;;;10408692;28;20049;-62
2022/03/18 09:49:19;;;;;;;6.75;1.25;;;7.60;83.70;;;;;;10399346;28;20137;-62
2022/03/18 09:54:21;;;;;;;3.75;1.25;;;7.70;79.70;;;;;;10414662;28;20076;-63
2022/03/18 09:59:24;;;;;;;6.85;1.52;;;7.80;78.00;;;;;;10409037;28;20053;-63
2022/03/18 10:04:26;;;;;;;6.15;1.20;;;8.00;76.90;;;;;;10405430;28;20049;-63
2022/03/18 10:09:28;;;;;;;5.85;1.48;;;8.30;76.80;;;;;;10411269;28;20102;-63
2022/03/18 10:14:30;;;;;;;7.70;1.90;;;8.50;75.70;;;;;;10406403;28;20076;-64
2022/03/18 10:19:45;;;;;;;9.70;1.40;;;8.80;75.80;;;;;;10410157;28;20049;-63
2022/03/18 10:24:47;;;;;;;8.18;1.83;;;9.40;75.20;;;;;;10406423;28;20053;-64
2022/03/18 10:29:53;;;;;;;7.70;2.00;;;10.50;71.70;;;;;;10411164;28;20411;-64
2022/03/18 10:40:33;;;;;;;11.10;2.75;;;13.20;62.60;;;;;;10407593;28;20049;-63
2022/03/18 10:45:35;;;;;;;3.45;1.40;;;14.60;58.80;;;;;;10410355;28;20706;-64
2022/03/18 10:50:37;;;;;;;6.93;1.80;;;15.40;55.50;;;;;;10409299;28;20045;-64
2022/03/18 10:55:41;;;;;;;4.00;1.60;;;15.30;54.50;;;;;;10404529;28;20100;-64
2022/03/18 11:00:50;;;;;;;4.40;1.52;;;15.20;53.10;;;;;;10405425;28;20060;-65
2022/03/18 11:05:52;;;;;;;4.80;1.50;;;15.70;54.50;;;;;;10405977;28;20076;-64
2022/03/18 11:11:15;;;;;;;8.48;1.67;;;16.10;53.80;;;;;;10404288;28;20045;-64
2022/03/18 11:16:23;;;;;;;5.82;1.40;;;16.60;51.90;;;;;;10403916;28;20040;-64
2022/03/18 11:21:35;;;;;;;8.30;1.73;;;17.40;49.40;;;;;;10411317;28;20053;-63
2022/03/18 11:26:46;;;;;;;2.40;1.15;;;18.40;46.90;;;;;;10409791;28;20040;-63
2022/03/18 11:32:14;;;;;;;5.43;0.70;;;18.90;43.60;;;;;;10401179;28;20336;-66
2022/03/18 11:37:18;;;;;;;3.78;0.65;;;19.00;39.60;;;;;;10402040;28;20053;-64
2022/03/18 11:42:20;;;;;;;2.47;0.63;;;20.10;39.60;;;;;;10408958;28;20057;-62
2022/03/18 11:47:31;;;;;;;3.30;0.70;;;20.60;37.70;;;;;;10409626;28;20072;-62
2022/03/18 11:52:58;;;;;;;3.55;0.50;;;21.00;37.00;;;;;;10384438;28;20139;-62
2022/03/18 11:57:59;;;;;;;2.72;0.60;;;21.30;35.60;;;;;;10404528;28;20191;-62
2022/03/18 12:03:02;;;;;;;2.00;0.40;;;21.70;34.50;;;;;;10411340;28;20076;-62
2022/03/18 12:08:04;;;;;;;2.25;0.38;;;22.10;33.70;;;;;;10406781;28;20723;-62
2022/03/18 12:13:05;;;;;;;2.28;0.70;;;21.90;33.50;;;;;;10402388;28;20628;-62
2022/03/18 12:18:08;;;;;;;1.95;0.45;;;22.10;33.60;;;;;;10402825;28;20390;-64
2022/03/18 12:23:34;;;;;;;2.05;0.40;;;21.70;32.30;;;;;;10400721;28;20133;-61
2022/03/18 12:28:49;;;;;;;2.63;0.30;;;22.10;32.00;;;;;;10398618;28;20053;-62
2022/03/18 12:33:58;;;;;;;1.40;0.40;;;22.30;31.70;;;;;;10406625;28;20457;-62
2022/03/18 12:39:13;;;;;;;2.40;0.40;;;22.80;31.60;;;;;;10395388;28;20080;-62
2022/03/18 12:44:29;;;;;;;2.77;0.70;;;22.80;34.20;;;;;;10403412;28;20098;-61
2022/03/18 12:49:35;;;;;;;2.88;0.40;;;23.10;37.90;;;;;;10387022;28;20045;-62
2022/03/18 12:54:37;;;;;;;0.68;0.40;;;22.50;51.00;;;;;;10407113;28;20044;-62
2022/03/18 12:59:39;;;;;;;2.10;0.40;;;22.60;31.30;;;;;;10411105;28;20048;-64
2022/03/18 13:05:02;;;;;;;1.70;0.30;;;23.10;32.20;;;;;;10383654;28;20061;-62
2022/03/18 13:10:04;;;;;;;1.30;0.40;;;22.80;30.00;;;;;;10406001;28;20069;-62
2022/03/18 13:15:15;;;;;;;2.90;0.40;;;22.70;30.10;;;;;;10403492;28;20065;-62
2022/03/18 13:20:27;;;;;;;2.88;0.60;;;23.00;30.50;;;;;;10406647;28;20045;-62
2022/03/18 13:25:29;;;;;;;3.45;0.40;;;22.70;30.00;;;;;;10406068;28;20507;-62
2022/03/18 13:35:54;;;;;;;3.67;0.63;;;23.10;29.90;;;;;;10402299;28;20076;-62
2022/03/18 13:40:57;;;;;;;1.77;0.20;;;22.80;29.90;;;;;;10404535;28;20052;-62
2022/03/18 13:46:20;;;;;;;3.60;0.20;;;23.30;30.30;;;;;;10410269;28;20056;-63
2022/03/18 13:51:33;;;;;;;1.20;0.20;;;23.30;30.00;;;;;;10408772;28;20052;-63
2022/03/18 13:56:38;;;;;;;3.35;0.25;;;22.70;30.10;;;;;;10400881;28;20134;-60
2022/03/18 14:02:01;;;;;;;0.63;0.30;;;22.40;30.00;;;;;;10403223;28;20080;-61
2022/03/18 14:07:03;;;;;;;2.67;0.25;;;22.00;29.80;;;;;;10407108;28;20065;-60
2022/03/18 14:12:17;;;;;;;2.60;0.30;;;22.10;30.70;;;;;;10400730;28;20512;-60
2022/03/18 14:17:22;;;;;;;1.38;0.30;;;21.70;30.50;;;;;;10384613;28;20105;-60
2022/03/18 14:22:37;;;;;;;3.08;0.43;;;21.50;31.00;;;;;;10408060;28;20053;-60
2022/03/18 14:27:40;;;;;;;1.55;0.20;;;21.90;31.20;;;;;;10408331;28;20103;-60
2022/03/18 14:32:44;;;;;;;0.88;0.20;;;21.70;30.10;;;;;;10402811;28;20407;-60
2022/03/18 14:37:47;;;;;;;1.83;0.20;;;21.30;30.00;;;;;;10405154;28;20077;-60
2022/03/18 14:42:49;;;;;;;1.02;0.30;;;21.50;30.00;;;;;;10402767;28;20053;-60
2022/03/18 14:47:51;;;;;;;2.35;0.20;;;21.20;30.00;;;;;;10404914;28;20103;-60
2022/03/18 14:52:54;;;;;;;2.22;0.20;;;21.20;31.80;;;;;;10409380;28;20123;-61
2022/03/18 14:57:57;;;;;;;1.40;0.20;;;20.80;31.00;;;;;;10412403;28;20080;-61
2022/03/18 15:02:59;;;;;;;2.40;0.20;;;20.70;33.50;;;;;;10397621;28;21223;-60
2022/03/18 15:08:03;;;;;;;2.00;0.20;;;19.80;31.30;;;;;;10411526;28;20051;-61
2022/03/18 15:13:10;;;;;;;2.58;0.25;;;19.90;31.00;;;;;;10407403;28;20553;-61
2022/03/18 15:18:12;;;;;;;1.73;0.32;;;19.50;31.10;;;;;;10400917;28;20050;-60
2022/03/18 15:23:14;;;;;;;3.03;0.20;;;19.10;31.40;;;;;;10405474;28;20045;-62
2022/03/18 15:28:18;;;;;;;1.20;0.10;;;18.90;33.60;;;;;;10405286;28;20111;-59
2022/03/18 15:33:20;;;;;;;0.30;0.17;;;18.50;33.30;;;;;;10400102;28;20053;-60
2022/03/18 15:38:22;;;;;;;7.55;0.30;;;18.30;34.70;;;;;;10395554;28;20055;-60
2022/03/18 15:43:23;;;;;;;2.28;0.20;;;18.00;36.10;;;;;;10393385;28;20487;-60
2022/03/18 15:48:26;;;;;;;0.77;0.10;;;17.90;36.30;;;;;;10400423;28;20099;-60
2022/03/18 15:53:27;;;;;;;3.13;0.30;;;17.60;35.90;;;;;;10396970;28;20081;-60
2022/03/18 15:58:30;;;;;;;1.65;0.30;;;17.50;35.70;;;;;;10406284;28;27637;-60
2022/03/18 16:03:31;;;;;;;1.08;0.20;;;17.40;36.00;;;;;;10403306;28;20091;-60
2022/03/18 16:08:33;;;;;;;2.40;0.25;;;17.30;37.50;;;;;;10391076;28;20048;-60
2022/03/18 16:13:35;;;;;;;0.65;0.17;;;17.20;37.50;;;;;;10396302;28;20432;-60
2022/03/18 16:18:37;;;;;;;1.95;0.30;;;16.90;37.60;;;;;;10405907;28;20111;-58
2022/03/18 16:23:38;;;;;;;1.40;0.30;;;16.60;38.80;;;;;;10398763;28;20053;-62
2022/03/18 16:28:43;;;;;;;3.42;0.28;;;16.40;39.30;;;;;;10389452;28;20057;-62
2022/03/18 16:33:45;;;;;;;6.50;1.30;;;16.00;40.30;;;;;;10395662;28;20041;-62
2022/03/18 16:38:47;;;;;;;0.80;0.20;;;15.60;40.90;;;;;;10382365;28;20407;-63
2022/03/18 16:43:49;;;;;;;2.20;0.30;;;15.40;42.10;;;;;;10408605;28;20050;-63
2022/03/18 16:54:11;;;;;;;2.92;0.28;;;14.60;43.20;;;;;;10409300;28;20566;-63
2022/03/18 16:59:13;;;;;;;1.52;0.30;;;14.30;43.40;;;;;;10408966;28;20488;-63
2022/03/18 17:04:21;;;;;;;2.97;0.30;;;13.90;44.10;;;;;;10407629;28;20086;-63
2022/03/18 17:09:24;;;;;;;3.83;0.73;;;13.50;44.40;;;;;;10397256;28;20053;-63
2022/03/18 17:14:26;;;;;;;2.40;0.73;;;13.10;47.10;;;;;;10408356;28;20072;-63
2022/03/18 17:19:27;;;;;;;2.92;0.40;;;12.70;47.70;;;;;;10407471;28;20084;-63
2022/03/18 17:24:30;;;;;;;1.65;0.30;;;12.30;48.60;;;;;;10409917;28;20126;-63
2022/03/18 17:29:32;;;;;;;2.95;0.40;;;12.00;48.70;;;;;;10406805;28;20863;-63
2022/03/18 17:34:34;;;;;;;1.27;0.50;;;11.70;49.70;;;;;;10409965;28;20041;-63
2022/03/18 17:39:37;;;;;;;1.85;0.32;;;11.40;50.60;;;;;;10407657;28;20038;-62
2022/03/18 17:44:38;;;;;;;4.32;0.35;;;11.10;52.10;;;;;;10410574;28;20077;-63
2022/03/18 17:49:40;;;;;;;0.80;0.30;;;10.80;52.80;;;;;;10411626;28;20060;-63
2022/03/18 17:54:42;;;;;;;0.95;0.20;;;10.60;53.30;;;;;;10407890;28;20059;-63
2022/03/18 17:59:44;;;;;;;2.30;0.30;;;10.50;53.60;;;;;;10399750;28;20053;-63
2022/03/18 18:04:46;;;;;;;4.78;0.50;;;10.40;53.40;;;;;;10405484;28;20041;-63
2022/03/18 18:09:48;;;;;;;1.13;0.30;;;10.10;54.00;;;;;;10401285;28;20065;-61
2022/03/18 18:14:50;;;;;;;3.50;0.50;;;10.00;54.40;;;;;;10408039;28;20053;-61
2022/03/18 18:25:12;;;;;;;1.52;0.32;;;9.70;56.50;;;;;;10397428;28;20052;-61
2022/03/18 18:30:14;;;;;;;1.27;0.40;;;9.50;56.30;;;;;;10407898;28;20146;-61
2022/03/18 18:35:16;;;;;;;1.75;0.30;;;9.40;57.60;;;;;;10406422;28;20132;-62
2022/03/18 18:40:19;;;;;;;2.88;0.47;;;9.20;57.80;;;;;;10389020;28;20057;-61
2022/03/18 18:45:22;;;;;;;1.75;0.93;;;9.10;58.60;;;;;;10411936;28;20052;-61
2022/03/18 18:50:23;;;;;;;1.73;0.40;;;8.80;59.70;;;;;;10408423;28;20079;-61
2022/03/18 18:55:26;;;;;;;3.90;0.73;;;8.60;61.40;;;;;;10406855;28;20848;-61
2022/03/18 19:00:28;;;;;;;3.10;0.55;;;8.40;61.80;;;;;;10405746;28;20092;-61
2022/03/18 19:05:30;;;;;;;2.88;0.65;;;8.20;62.60;;;;;;10408939;28;20073;-61
2022/03/18 19:10:31;;;;;;;3.45;0.70;;;8.10;62.70;;;;;;10405386;28;20049;-61
2022/03/18 19:15:37;;;;;;;7.43;1.42;;;7.90;63.20;;;;;;10397070;28;20045;-60
2022/03/18 19:20:39;;;;;;;8.45;1.98;;;7.80;63.40;;;;;;10398762;28;20119;-60
2022/03/18 19:25:41;;;;;;;3.95;1.30;;;7.70;62.50;;;;;;10394687;28;20542;-61
2022/03/18 19:30:49;;;;;;;1.58;0.70;;;7.60;62.80;;;;;;10388031;28;20412;-61
2022/03/18 19:35:56;;;;;;;2.05;0.90;;;7.50;63.10;;;;;;10404092;28;20049;-61
2022/03/18 19:40:57;;;;;;;3.33;0.85;;;7.40;63.00;;;;;;10406761;28;20084;-60
2022/03/18 19:46:00;;;;;;;2.45;0.60;;;7.30;63.90;;;;;;10395623;28;20053;-61
2022/03/18 19:51:01;;;;;;;1.83;0.57;;;7.30;64.50;;;;;;10398923;28;20053;-61
2022/03/18 20:01:25;;;;;;;3.60;1.00;;;7.10;64.20;;;;;;10402388;28;20078;-61
2022/03/18 20:06:29;;;;;;;2.38;0.60;;;7.20;63.20;;;;;;10399459;28;20535;-61
2022/03/18 20:11:31;;;;;;;5.47;0.90;;;7.10;64.00;;;;;;10403996;28;20535;-59
2022/03/18 20:16:33;;;;;;;3.30;1.15;;;7.10;64.30;;;;;;10400789;28;20146;-59
2022/03/18 20:21:35;;;;;;;2.22;0.68;;;7.00;64.70;;;;;;10401289;28;20172;-59
2022/03/18 20:26:38;;;;;;;1.60;0.63;;;7.00;65.30;;;;;;10393152;28;20053;-59
2022/03/18 20:31:42;;;;;;;2.45;0.50;;;6.90;65.80;;;;;;10398934;28;20479;-60
2022/03/18 20:36:44;;;;;;;3.65;0.60;;;6.90;65.70;;;;;;10399014;28;20049;-60
2022/03/18 20:41:46;;;;;;;3.22;0.75;;;6.90;65.60;;;;;;10400456;28;20049;-60
2022/03/18 20:46:48;;;;;;;1.85;1.02;;;6.90;65.50;;;;;;10398523;28;20162;-60
2022/03/18 20:51:50;;;;;;;3.42;0.93;;;6.90;64.80;;;;;;10403559;28;20073;-61
2022/03/18 20:56:56;;;;;;;9.05;0.80;;;6.90;65.20;;;;;;10407636;28;20045;-61
2022/03/18 21:01:58;;;;;;;3.17;0.63;;;6.80;65.20;;;;;;10402445;28;20111;-61
2022/03/18 21:07:02;;;;;;;3.72;0.77;;;6.90;65.70;;;;;;10403075;28;20056;-62
2022/03/18 21:12:04;;;;;;;2.55;0.90;;;6.90;65.00;;;;;;10401215;28;20052;-62
2022/03/18 21:17:24;;;;;;;2.20;0.60;;;6.90;65.30;;;;;;10401449;28;20053;-62
2022/03/18 21:22:27;;;;;;;5.95;0.80;;;6.80;65.70;;;;;;10396999;28;20130;-62
2022/03/18 21:32:49;;;;;;;5.95;1.60;;;6.70;66.10;;;;;;10394125;28;20052;-62
2022/03/18 21:38:01;;;;;;;4.13;0.90;;;6.70;66.60;;;;;;10395426;28;20045;-62
2022/03/18 21:43:03;;;;;;;6.82;1.85;;;6.70;66.60;;;;;;10402756;28;20579;-63
2022/03/18 21:48:09;;;;;;;3.35;1.17;;;6.60;66.70;;;;;;10412978;28;20053;-62
2022/03/18 21:53:11;;;;;;;3.65;0.90;;;6.60;66.70;;;;;;10409987;28;20453;-62
2022/03/18 21:58:13;;;;;;;6.68;0.98;;;6.60;66.80;;;;;;10407764;28;20573;-63
2022/03/18 22:03:15;;;;;;;2.25;0.93;;;6.60;67.00;;;;;;10407968;28;20574;-61
2022/03/18 22:08:18;;;;;;;5.75;0.88;;;6.50;67.40;;;;;;10393614;28;20105;-59
2022/03/18 22:13:20;;;;;;;5.35;0.95;;;6.50;67.70;;;;;;10407207;28;20064;-60
2022/03/18 22:18:21;;;;;;;6.00;0.93;;;6.40;68.10;;;;;;10405484;28;20144;-60
2022/03/18 22:23:26;;;;;;;4.82;1.13;;;6.40;68.10;;;;;;10407658;28;20493;-61
2022/03/18 22:28:28;;;;;;;6.32;1.00;;;6.30;68.50;;;;;;10408001;28;20596;-62
2022/03/18 22:33:30;;;;;;;3.67;1.00;;;6.30;68.70;;;;;;10396078;28;20102;-61
2022/03/18 22:38:31;;;;;;;4.10;1.17;;;6.30;68.60;;;;;;10406816;28;20042;-62
2022/03/18 22:43:33;;;;;;;2.90;0.82;;;6.20;68.90;;;;;;10397108;28;20084;-62
2022/03/18 22:48:35;;;;;;;2.25;0.65;;;6.20;69.30;;;;;;10373271;28;20084;-61
2022/03/18 22:53:36;;;;;;;4.88;0.77;;;6.10;69.90;;;;;;10407315;28;20134;-61
2022/03/18 22:58:38;;;;;;;7.30;0.93;;;6.10;69.70;;;;;;10411544;28;20045;-61
2022/03/18 23:03:40;;;;;;;2.85;0.75;;;6.00;69.70;;;;;;10404670;28;20072;-61
2022/03/18 23:08:42;;;;;;;3.60;0.60;;;6.00;70.00;;;;;;10402586;28;20131;-60
2022/03/18 23:13:47;;;;;;;4.45;0.68;;;6.00;70.50;;;;;;10406912;28;20072;-61
2022/03/18 23:18:49;;;;;;;2.13;0.50;;;5.90;70.70;;;;;;10399064;28;20171;-62
2022/03/18 23:23:51;;;;;;;2.08;0.95;;;5.80;71.20;;;;;;10405738;28;20049;-60
2022/03/18 23:28:53;;;;;;;9.07;0.88;;;5.70;71.30;;;;;;10401334;28;20937;-61
2022/03/18 23:33:55;;;;;;;5.38;1.02;;;5.70;72.10;;;;;;10405429;28;20549;-61
2022/03/18 23:38:58;;;;;;;1.85;0.50;;;5.60;72.30;;;;;;10405847;28;20048;-60
2022/03/18 23:44:00;;;;;;;2.78;0.52;;;5.60;72.90;;;;;;10403857;28;20049;-61
2022/03/18 23:49:02;;;;;;;4.85;0.77;;;5.60;73.20;;;;;;10409486;28;20128;-61
2022/03/18 23:54:03;;;;;;;2.78;1.08;;;5.50;73.90;;;;;;10406154;28;20076;-61
2022/03/18 23:59:05;;;;;;;4.05;0.80;;;5.50;74.50;;;;;;10406270;28;20057;-60
